sensor_id;sensor_type;location;lat;lon;timestamp;temperature;humidity
41262;DHT22;29629;52.532;13.352;2023-04-03T00:00:30;2.60;99.90
41262;DHT22;29629;52.532;13.352;2023-04-03T00:02:57;2.60;99.90
41262;DHT22;29629;52.532;13.352;2023-04-03T00:05:26;2.50;99.90
41262;DHT22;29629;52.532;13.352;2023-04-03T00:07:52;2.50;99.90
41262;DHT22;29629;52.532;13.352;2023-04-03T00:10:19;2.50;99.90
41262;DHT22;29629;52.532;13.352;2023-04-03T00:12:46;2.50;99.90
41262;DHT22;29629;52.532;13.352;2023-04-03T00:15:13;2.50;99.90
41262;DHT22;29629;52.532;13.352;2023-04-03T00:17:41;2.50;99.90
41262;DHT22;29629;52.532;13.352;2023-04-03T00:20:08;2.50;99.90
41262;DHT22;29629;52.532;13.352;2023-04-03T00:22:37;2.50;99.90
41262;DHT22;29629;52.532;13.352;2023-04-03T00:25:04;2.50;99.90
41262;DHT22;29629;52.532;13.352;2023-04-03T00:27:31;2.40;99.90
41262;DHT22;29629;52.532;13.352;2023-04-03T00:29:58;2.40;99.90
41262;DHT22;29629;52.532;13.352;2023-04-03T00:32:25;2.50;99.90
41262;DHT22;29629;52.532;13.352;2023-04-03T00:34:52;2.50;99.90
41262;DHT22;29629;52.532;13.352;2023-04-03T00:37:19;2.40;99.90
41262;DHT22;29629;52.532;13.352;2023-04-03T00:39:47;2.40;99.90
41262;DHT22;29629;52.532;13.352;2023-04-03T00:42:14;2.40;99.90
41262;DHT22;29629;52.532;13.352;2023-04-03T00:47:54;2.40;99.90
41262;DHT22;29629;52.532;13.352;2023-04-03T00:50:22;2.30;99.90
41262;DHT22;29629;52.532;13.352;2023-04-03T00:52:49;2.30;99.90
41262;DHT22;29629;52.532;13.352;2023-04-03T00:55:17;2.40;99.90
41262;DHT22;29629;52.532;13.352;2023-04-03T00:57:45;2.30;99.90
41262;DHT22;29629;52.532;13.352;2023-04-03T01:00:15;2.40;99.90
41262;DHT22;29629;52.532;13.352;2023-04-03T01:02:45;2.30;99.90
41262;DHT22;29629;52.532;13.352;2023-04-03T01:05:12;2.30;99.90
41262;DHT22;29629;52.532;13.352;2023-04-03T01:07:41;2.30;99.90
41262;DHT22;29629;52.532;13.352;2023-04-03T01:10:11;2.30;99.90
41262;DHT22;29629;52.532;13.352;2023-04-03T01:12:42;2.40;99.90
41262;DHT22;29629;52.532;13.352;2023-04-03T01:15:12;2.30;99.90
41262;DHT22;29629;52.532;13.352;2023-04-03T01:17:41;2.40;99.90
41262;DHT22;29629;52.532;13.352;2023-04-03T01:20:40;2.30;99.90
41262;DHT22;29629;52.532;13.352;2023-04-03T01:23:22;2.40;99.90
41262;DHT22;29629;52.532;13.352;2023-04-03T01:25:54;2.30;99.90
41262;DHT22;29629;52.532;13.352;2023-04-03T01:28:24;2.30;99.90
41262;DHT22;29629;52.532;13.352;2023-04-03T01:30:58;2.30;99.90
41262;DHT22;29629;52.532;13.352;2023-04-03T01:33:27;2.30;99.90
41262;DHT22;29629;52.532;13.352;2023-04-03T01:35:54;2.30;99.90
41262;DHT22;29629;52.532;13.352;2023-04-03T01:38:21;2.30;99.90
41262;DHT22;29629;52.532;13.352;2023-04-03T01:40:48;2.20;99.90
41262;DHT22;29629;52.532;13.352;2023-04-03T01:43:14;2.20;99.90
41262;DHT22;29629;52.532;13.352;2023-04-03T01:45:41;2.30;99.90
41262;DHT22;29629;52.532;13.352;2023-04-03T01:48:08;2.20;99.90
41262;DHT22;29629;52.532;13.352;2023-04-03T01:50:36;2.20;99.90
41262;DHT22;29629;52.532;13.352;2023-04-03T01:53:03;2.20;99.90
41262;DHT22;29629;52.532;13.352;2023-04-03T01:55:30;2.30;99.90
41262;DHT22;29629;52.532;13.352;2023-04-03T01:57:57;2.20;99.90
41262;DHT22;29629;52.532;13.352;2023-04-03T02:00:24;2.20;99.90
41262;DHT22;29629;52.532;13.352;2023-04-03T02:02:52;2.20;99.90
41262;DHT22;29629;52.532;13.352;2023-04-03T02:05:19;2.20;99.90
41262;DHT22;29629;52.532;13.352;2023-04-03T02:07:47;2.20;99.90
41262;DHT22;29629;52.532;13.352;2023-04-03T02:10:14;2.20;99.90
41262;DHT22;29629;52.532;13.352;2023-04-03T02:12:41;2.20;99.90
41262;DHT22;29629;52.532;13.352;2023-04-03T02:15:09;2.20;99.90
41262;DHT22;29629;52.532;13.352;2023-04-03T02:17:36;2.20;99.90
41262;DHT22;29629;52.532;13.352;2023-04-03T02:20:03;2.10;99.90
41262;DHT22;29629;52.532;13.352;2023-04-03T02:22:30;2.20;99.90
41262;DHT22;29629;52.532;13.352;2023-04-03T02:24:58;2.10;99.90
41262;DHT22;29629;52.532;13.352;2023-04-03T02:27:26;2.10;99.90
41262;DHT22;29629;52.532;13.352;2023-04-03T02:29:53;2.10;99.90
41262;DHT22;29629;52.532;13.352;2023-04-03T02:32:20;2.20;99.90
41262;DHT22;29629;52.532;13.352;2023-04-03T02:34:47;2.20;99.90
41262;DHT22;29629;52.532;13.352;2023-04-03T02:37:14;2.10;99.90
41262;DHT22;29629;52.532;13.352;2023-04-03T02:39:41;2.10;99.90
41262;DHT22;29629;52.532;13.352;2023-04-03T02:42:10;2.10;99.90
41262;DHT22;29629;52.532;13.352;2023-04-03T02:44:37;2.10;99.90
41262;DHT22;29629;52.532;13.352;2023-04-03T02:47:04;2.10;99.90
41262;DHT22;29629;52.532;13.352;2023-04-03T02:49:31;2.00;99.90
41262;DHT22;29629;52.532;13.352;2023-04-03T02:51:58;2.10;99.90
41262;DHT22;29629;52.532;13.352;2023-04-03T02:54:25;2.10;99.90
41262;DHT22;29629;52.532;13.352;2023-04-03T02:56:54;2.00;99.90
41262;DHT22;29629;52.532;13.352;2023-04-03T02:59:22;2.00;99.90
41262;DHT22;29629;52.532;13.352;2023-04-03T03:01:49;2.00;99.90
41262;DHT22;29629;52.532;13.352;2023-04-03T03:04:16;2.00;99.90
41262;DHT22;29629;52.532;13.352;2023-04-03T03:06:43;2.00;99.90
41262;DHT22;29629;52.532;13.352;2023-04-03T03:09:10;2.00;99.90
41262;DHT22;29629;52.532;13.352;2023-04-03T03:11:38;2.00;99.90
41262;DHT22;29629;52.532;13.352;2023-04-03T03:14:05;2.00;99.90
41262;DHT22;29629;52.532;13.352;2023-04-03T03:16:34;2.00;99.90
41262;DHT22;29629;52.532;13.352;2023-04-03T03:19:01;2.00;99.90
41262;DHT22;29629;52.532;13.352;2023-04-03T03:21:28;2.00;99.90
41262;DHT22;29629;52.532;13.352;2023-04-03T03:23:55;2.00;99.90
41262;DHT22;29629;52.532;13.352;2023-04-03T03:26:22;2.00;99.90
41262;DHT22;29629;52.532;13.352;2023-04-03T03:28:49;1.90;99.90
41262;DHT22;29629;52.532;13.352;2023-04-03T03:31:16;1.90;99.90
41262;DHT22;29629;52.532;13.352;2023-04-03T03:33:44;1.90;99.90
41262;DHT22;29629;52.532;13.352;2023-04-03T03:36:11;1.90;99.90
41262;DHT22;29629;52.532;13.352;2023-04-03T03:38:38;1.90;99.90
41262;DHT22;29629;52.532;13.352;2023-04-03T03:41:05;1.90;99.90
41262;DHT22;29629;52.532;13.352;2023-04-03T03:43:32;1.90;99.90
41262;DHT22;29629;52.532;13.352;2023-04-03T03:45:58;1.90;99.90
41262;DHT22;29629;52.532;13.352;2023-04-03T03:48:25;1.80;99.90
41262;DHT22;29629;52.532;13.352;2023-04-03T03:50:54;1.80;99.90
41262;DHT22;29629;52.532;13.352;2023-04-03T03:53:21;1.80;99.90
41262;DHT22;29629;52.532;13.352;2023-04-03T03:55:48;1.80;99.90
41262;DHT22;29629;52.532;13.352;2023-04-03T03:58:15;1.80;99.90
41262;DHT22;29629;52.532;13.352;2023-04-03T04:00:41;1.80;99.90
41262;DHT22;29629;52.532;13.352;2023-04-03T04:03:08;1.70;99.90
41262;DHT22;29629;52.532;13.352;2023-04-03T04:05:35;1.70;99.90
41262;DHT22;29629;52.532;13.352;2023-04-03T04:08:04;1.70;99.90
41262;DHT22;29629;52.532;13.352;2023-04-03T04:10:31;1.70;99.90
41262;DHT22;29629;52.532;13.352;2023-04-03T04:12:58;1.70;99.90
41262;DHT22;29629;52.532;13.352;2023-04-03T04:15:25;1.70;99.90
41262;DHT22;29629;52.532;13.352;2023-04-03T04:17:52;1.70;99.90
41262;DHT22;29629;52.532;13.352;2023-04-03T04:20:19;1.70;99.90
41262;DHT22;29629;52.532;13.352;2023-04-03T04:22:46;1.60;99.90
41262;DHT22;29629;52.532;13.352;2023-04-03T04:25:14;1.70;99.90
41262;DHT22;29629;52.532;13.352;2023-04-03T04:27:41;1.70;99.90
41262;DHT22;29629;52.532;13.352;2023-04-03T04:30:09;1.70;99.90
41262;DHT22;29629;52.532;13.352;2023-04-03T04:32:37;1.70;99.90
41262;DHT22;29629;52.532;13.352;2023-04-03T04:35:04;1.60;99.90
41262;DHT22;29629;52.532;13.352;2023-04-03T04:37:31;1.60;99.90
41262;DHT22;29629;52.532;13.352;2023-04-03T04:39:58;1.70;99.90
41262;DHT22;29629;52.532;13.352;2023-04-03T04:42:27;1.60;99.90
41262;DHT22;29629;52.532;13.352;2023-04-03T04:44:53;1.60;99.90
41262;DHT22;29629;52.532;13.352;2023-04-03T04:47:20;1.60;99.90
41262;DHT22;29629;52.532;13.352;2023-04-03T04:49:47;1.70;99.90
41262;DHT22;29629;52.532;13.352;2023-04-03T04:52:14;1.70;99.90
41262;DHT22;29629;52.532;13.352;2023-04-03T04:54:41;1.70;99.90
41262;DHT22;29629;52.532;13.352;2023-04-03T04:57:08;1.70;99.90
41262;DHT22;29629;52.532;13.352;2023-04-03T04:59:37;1.70;99.90
41262;DHT22;29629;52.532;13.352;2023-04-03T05:02:04;1.70;99.90
41262;DHT22;29629;52.532;13.352;2023-04-03T05:04:31;1.70;99.90
41262;DHT22;29629;52.532;13.352;2023-04-03T05:06:58;1.70;99.90
41262;DHT22;29629;52.532;13.352;2023-04-03T05:09:26;1.70;99.90
41262;DHT22;29629;52.532;13.352;2023-04-03T05:11:52;1.70;99.90
41262;DHT22;29629;52.532;13.352;2023-04-03T05:14:20;1.70;99.90
41262;DHT22;29629;52.532;13.352;2023-04-03T05:16:49;1.80;99.90
41262;DHT22;29629;52.532;13.352;2023-04-03T05:19:18;1.80;99.90
41262;DHT22;29629;52.532;13.352;2023-04-03T05:21:45;1.80;99.90
41262;DHT22;29629;52.532;13.352;2023-04-03T05:24:12;1.90;99.90
41262;DHT22;29629;52.532;13.352;2023-04-03T05:26:39;1.80;99.90
41262;DHT22;29629;52.532;13.352;2023-04-03T05:29:06;1.90;99.90
41262;DHT22;29629;52.532;13.352;2023-04-03T05:31:33;2.00;99.90
41262;DHT22;29629;52.532;13.352;2023-04-03T05:34:01;2.10;99.90
41262;DHT22;29629;52.532;13.352;2023-04-03T05:36:28;2.10;99.90
41262;DHT22;29629;52.532;13.352;2023-04-03T05:38:55;2.20;99.90
41262;DHT22;29629;52.532;13.352;2023-04-03T05:41:23;2.20;99.90
41262;DHT22;29629;52.532;13.352;2023-04-03T05:43:50;2.30;99.90
41262;DHT22;29629;52.532;13.352;2023-04-03T05:46:18;2.40;99.90
41262;DHT22;29629;52.532;13.352;2023-04-03T05:48:46;2.50;99.90
41262;DHT22;29629;52.532;13.352;2023-04-03T05:51:16;2.60;99.90
41262;DHT22;29629;52.532;13.352;2023-04-03T05:53:44;2.70;99.90
41262;DHT22;29629;52.532;13.352;2023-04-03T05:56:14;2.80;99.90
41262;DHT22;29629;52.532;13.352;2023-04-03T05:58:41;2.80;99.90
41262;DHT22;29629;52.532;13.352;2023-04-03T06:01:08;2.90;99.90
41262;DHT22;29629;52.532;13.352;2023-04-03T06:03:35;3.00;99.90
41262;DHT22;29629;52.532;13.352;2023-04-03T06:06:04;3.00;99.90
41262;DHT22;29629;52.532;13.352;2023-04-03T06:08:32;3.10;99.90
41262;DHT22;29629;52.532;13.352;2023-04-03T06:11:00;3.20;99.90
41262;DHT22;29629;52.532;13.352;2023-04-03T06:13:28;3.30;99.90
41262;DHT22;29629;52.532;13.352;2023-04-03T06:15:55;3.30;99.90
41262;DHT22;29629;52.532;13.352;2023-04-03T06:18:23;3.40;99.90
41262;DHT22;29629;52.532;13.352;2023-04-03T06:20:50;3.60;99.90
41262;DHT22;29629;52.532;13.352;2023-04-03T06:23:17;3.70;99.90
41262;DHT22;29629;52.532;13.352;2023-04-03T06:25:45;3.80;99.90
41262;DHT22;29629;52.532;13.352;2023-04-03T06:28:12;3.90;99.90
41262;DHT22;29629;52.532;13.352;2023-04-03T06:30:39;3.90;99.90
41262;DHT22;29629;52.532;13.352;2023-04-03T06:33:06;3.90;99.90
41262;DHT22;29629;52.532;13.352;2023-04-03T06:35:33;4.00;99.90
41262;DHT22;29629;52.532;13.352;2023-04-03T06:38:01;4.10;99.90
41262;DHT22;29629;52.532;13.352;2023-04-03T06:40:29;4.10;99.90
41262;DHT22;29629;52.532;13.352;2023-04-03T06:42:58;4.20;99.90
41262;DHT22;29629;52.532;13.352;2023-04-03T06:45:25;4.30;99.90
41262;DHT22;29629;52.532;13.352;2023-04-03T06:47:53;4.50;99.90
41262;DHT22;29629;52.532;13.352;2023-04-03T06:50:20;4.60;99.90
41262;DHT22;29629;52.532;13.352;2023-04-03T06:52:47;4.60;99.90
41262;DHT22;29629;52.532;13.352;2023-04-03T06:55:14;4.70;99.90
41262;DHT22;29629;52.532;13.352;2023-04-03T06:57:41;4.80;99.90
41262;DHT22;29629;52.532;13.352;2023-04-03T07:00:11;5.00;99.90
41262;DHT22;29629;52.532;13.352;2023-04-03T07:02:38;5.10;99.90
41262;DHT22;29629;52.532;13.352;2023-04-03T07:05:06;5.20;99.90
41262;DHT22;29629;52.532;13.352;2023-04-03T07:07:34;5.20;99.90
41262;DHT22;29629;52.532;13.352;2023-04-03T07:10:01;5.20;99.90
41262;DHT22;29629;52.532;13.352;2023-04-03T07:12:28;5.20;99.90
41262;DHT22;29629;52.532;13.352;2023-04-03T07:14:55;5.50;99.90
41262;DHT22;29629;52.532;13.352;2023-04-03T07:17:23;5.60;99.90
41262;DHT22;29629;52.532;13.352;2023-04-03T07:19:50;5.90;99.90
41262;DHT22;29629;52.532;13.352;2023-04-03T07:22:17;6.20;99.90
41262;DHT22;29629;52.532;13.352;2023-04-03T07:24:45;6.40;99.90
41262;DHT22;29629;52.532;13.352;2023-04-03T07:27:12;6.60;99.90
41262;DHT22;29629;52.532;13.352;2023-04-03T07:29:39;6.40;99.90
41262;DHT22;29629;52.532;13.352;2023-04-03T07:32:06;6.10;99.90
41262;DHT22;29629;52.532;13.352;2023-04-03T07:34:35;6.10;99.90
41262;DHT22;29629;52.532;13.352;2023-04-03T07:37:02;6.10;99.90
41262;DHT22;29629;52.532;13.352;2023-04-03T07:39:30;6.20;99.90
41262;DHT22;29629;52.532;13.352;2023-04-03T07:41:57;6.20;99.90
41262;DHT22;29629;52.532;13.352;2023-04-03T07:44:24;6.50;99.90
41262;DHT22;29629;52.532;13.352;2023-04-03T07:46:50;6.40;99.90
41262;DHT22;29629;52.532;13.352;2023-04-03T07:49:18;6.40;99.90
41262;DHT22;29629;52.532;13.352;2023-04-03T07:51:46;6.50;99.90
41262;DHT22;29629;52.532;13.352;2023-04-03T07:54:14;6.70;99.90
41262;DHT22;29629;52.532;13.352;2023-04-03T07:56:41;6.60;99.90
41262;DHT22;29629;52.532;13.352;2023-04-03T07:59:09;6.80;99.90
41262;DHT22;29629;52.532;13.352;2023-04-03T08:01:37;6.50;99.90
41262;DHT22;29629;52.532;13.352;2023-04-03T08:04:04;6.20;99.90
41262;DHT22;29629;52.532;13.352;2023-04-03T08:06:32;5.80;99.90
41262;DHT22;29629;52.532;13.352;2023-04-03T08:09:02;5.70;99.90
41262;DHT22;29629;52.532;13.352;2023-04-03T08:11:30;5.80;99.90
41262;DHT22;29629;52.532;13.352;2023-04-03T08:13:57;6.20;99.90
41262;DHT22;29629;52.532;13.352;2023-04-03T08:16:25;6.60;99.90
41262;DHT22;29629;52.532;13.352;2023-04-03T08:18:53;7.10;99.90
41262;DHT22;29629;52.532;13.352;2023-04-03T08:21:21;7.40;99.90
41262;DHT22;29629;52.532;13.352;2023-04-03T08:23:49;7.90;99.90
41262;DHT22;29629;52.532;13.352;2023-04-03T08:26:20;7.90;99.90
41262;DHT22;29629;52.532;13.352;2023-04-03T08:28:47;7.90;99.90
41262;DHT22;29629;52.532;13.352;2023-04-03T08:31:16;8.10;99.90
41262;DHT22;29629;52.532;13.352;2023-04-03T08:33:44;8.10;99.90
41262;DHT22;29629;52.532;13.352;2023-04-03T08:36:19;7.50;99.90
41262;DHT22;29629;52.532;13.352;2023-04-03T08:38:46;7.40;99.90
41262;DHT22;29629;52.532;13.352;2023-04-03T08:41:16;7.60;99.90
41262;DHT22;29629;52.532;13.352;2023-04-03T08:44:02;7.70;99.90
41262;DHT22;29629;52.532;13.352;2023-04-03T08:46:40;7.60;99.90
41262;DHT22;29629;52.532;13.352;2023-04-03T08:49:13;7.40;99.90
41262;DHT22;29629;52.532;13.352;2023-04-03T08:51:46;7.20;99.90
41262;DHT22;29629;52.532;13.352;2023-04-03T08:54:24;7.60;99.90
41262;DHT22;29629;52.532;13.352;2023-04-03T08:56:52;8.40;99.90
41262;DHT22;29629;52.532;13.352;2023-04-03T08:59:26;7.80;99.90
41262;DHT22;29629;52.532;13.352;2023-04-03T09:01:55;7.80;99.90
41262;DHT22;29629;52.532;13.352;2023-04-03T09:04:31;8.10;99.90
41262;DHT22;29629;52.532;13.352;2023-04-03T09:07:06;8.20;99.90
41262;DHT22;29629;52.532;13.352;2023-04-03T09:09:37;8.10;99.90
41262;DHT22;29629;52.532;13.352;2023-04-03T09:12:15;8.70;99.90
41262;DHT22;29629;52.532;13.352;2023-04-03T09:14:53;9.50;99.90
41262;DHT22;29629;52.532;13.352;2023-04-03T09:17:31;10.00;99.90
41262;DHT22;29629;52.532;13.352;2023-04-03T09:20:12;12.10;99.90
41262;DHT22;29629;52.532;13.352;2023-04-03T09:22:42;14.40;99.90
41262;DHT22;29629;52.532;13.352;2023-04-03T09:25:13;13.50;99.40
41262;DHT22;29629;52.532;13.352;2023-04-03T09:27:40;15.60;98.00
41262;DHT22;29629;52.532;13.352;2023-04-03T09:30:13;14.40;95.40
41262;DHT22;29629;52.532;13.352;2023-04-03T09:32:43;11.40;97.60
41262;DHT22;29629;52.532;13.352;2023-04-03T09:35:19;10.00;99.90
41262;DHT22;29629;52.532;13.352;2023-04-03T09:37:49;9.00;99.90
41262;DHT22;29629;52.532;13.352;2023-04-03T09:40:31;8.50;99.90
41262;DHT22;29629;52.532;13.352;2023-04-03T09:43:00;8.10;99.90
41262;DHT22;29629;52.532;13.352;2023-04-03T09:45:31;8.20;99.90
41262;DHT22;29629;52.532;13.352;2023-04-03T09:48:06;8.60;99.90
41262;DHT22;29629;52.532;13.352;2023-04-03T09:50:35;9.60;99.90
41262;DHT22;29629;52.532;13.352;2023-04-03T09:53:05;14.10;99.90
41262;DHT22;29629;52.532;13.352;2023-04-03T09:55:42;16.70;98.10
41262;DHT22;29629;52.532;13.352;2023-04-03T09:58:24;16.90;94.80
41262;DHT22;29629;52.532;13.352;2023-04-03T10:00:56;14.40;95.50
41262;DHT22;29629;52.532;13.352;2023-04-03T10:03:27;12.30;97.20
41262;DHT22;29629;52.532;13.352;2023-04-03T10:05:54;11.40;98.30
41262;DHT22;29629;52.532;13.352;2023-04-03T10:08:25;10.80;98.90
41262;DHT22;29629;52.532;13.352;2023-04-03T10:11:11;10.60;98.70
41262;DHT22;29629;52.532;13.352;2023-04-03T10:13:50;10.80;99.80
41262;DHT22;29629;52.532;13.352;2023-04-03T10:16:20;10.30;98.50
41262;DHT22;29629;52.532;13.352;2023-04-03T10:19:03;10.00;99.10
41262;DHT22;29629;52.532;13.352;2023-04-03T10:21:38;9.80;99.50
41262;DHT22;29629;52.532;13.352;2023-04-03T10:24:13;9.10;99.90
41262;DHT22;29629;52.532;13.352;2023-04-03T10:26:47;9.20;99.90
41262;DHT22;29629;52.532;13.352;2023-04-03T10:29:35;9.20;99.90
41262;DHT22;29629;52.532;13.352;2023-04-03T10:32:20;10.90;99.90
41262;DHT22;29629;52.532;13.352;2023-04-03T10:34:50;10.00;98.40
41262;DHT22;29629;52.532;13.352;2023-04-03T10:37:24;9.70;98.70
41262;DHT22;29629;52.532;13.352;2023-04-03T10:39:56;10.70;99.40
41262;DHT22;29629;52.532;13.352;2023-04-03T10:42:28;11.20;97.60
41262;DHT22;29629;52.532;13.352;2023-04-03T10:45:07;11.00;98.00
41262;DHT22;29629;52.532;13.352;2023-04-03T10:47:40;10.50;99.50
41262;DHT22;29629;52.532;13.352;2023-04-03T10:50:26;10.20;97.50
41262;DHT22;29629;52.532;13.352;2023-04-03T10:52:59;9.60;98.50
41262;DHT22;29629;52.532;13.352;2023-04-03T10:55:34;9.30;99.00
41262;DHT22;29629;52.532;13.352;2023-04-03T10:58:03;9.00;99.40
41262;DHT22;29629;52.532;13.352;2023-04-03T11:00:35;8.80;99.90
41262;DHT22;29629;52.532;13.352;2023-04-03T11:03:07;9.30;99.90
41262;DHT22;29629;52.532;13.352;2023-04-03T11:05:39;9.00;99.90
41262;DHT22;29629;52.532;13.352;2023-04-03T11:08:13;9.10;99.90
41262;DHT22;29629;52.532;13.352;2023-04-03T11:10:46;8.90;99.90
41262;DHT22;29629;52.532;13.352;2023-04-03T11:13:17;8.90;99.90
41262;DHT22;29629;52.532;13.352;2023-04-03T11:15:45;8.80;99.90
41262;DHT22;29629;52.532;13.352;2023-04-03T11:18:17;8.50;99.90
41262;DHT22;29629;52.532;13.352;2023-04-03T11:20:58;8.20;99.90
41262;DHT22;29629;52.532;13.352;2023-04-03T11:23:31;8.00;99.90
41262;DHT22;29629;52.532;13.352;2023-04-03T11:26:07;8.20;99.90
41262;DHT22;29629;52.532;13.352;2023-04-03T11:28:36;8.00;99.90
41262;DHT22;29629;52.532;13.352;2023-04-03T11:34:02;8.30;99.90
41262;DHT22;29629;52.532;13.352;2023-04-03T11:36:34;8.20;99.90
41262;DHT22;29629;52.532;13.352;2023-04-03T11:39:15;8.30;99.90
41262;DHT22;29629;52.532;13.352;2023-04-03T11:41:43;8.10;99.90
41262;DHT22;29629;52.532;13.352;2023-04-03T11:44:33;7.90;99.90
41262;DHT22;29629;52.532;13.352;2023-04-03T11:47:03;8.10;99.90
41262;DHT22;29629;52.532;13.352;2023-04-03T11:49:52;8.20;99.90
41262;DHT22;29629;52.532;13.352;2023-04-03T11:52:57;8.00;99.90
41262;DHT22;29629;52.532;13.352;2023-04-03T11:55:46;7.90;99.90
41262;DHT22;29629;52.532;13.352;2023-04-03T11:58:18;8.20;99.90
41262;DHT22;29629;52.532;13.352;2023-04-03T12:00:55;8.20;99.90
41262;DHT22;29629;52.532;13.352;2023-04-03T12:03:57;8.30;99.90
41262;DHT22;29629;52.532;13.352;2023-04-03T12:07:08;8.10;99.90
41262;DHT22;29629;52.532;13.352;2023-04-03T12:10:12;8.10;99.90
41262;DHT22;29629;52.532;13.352;2023-04-03T12:12:40;8.10;99.90
41262;DHT22;29629;52.532;13.352;2023-04-03T12:19:00;7.80;99.90
41262;DHT22;29629;52.532;13.352;2023-04-03T12:24:35;7.80;99.90
41262;DHT22;29629;52.532;13.352;2023-04-03T12:27:26;7.60;99.90
41262;DHT22;29629;52.532;13.352;2023-04-03T12:30:05;7.70;99.90
41262;DHT22;29629;52.532;13.352;2023-04-03T12:33:05;7.50;99.90
41262;DHT22;29629;52.532;13.352;2023-04-03T12:35:48;7.40;99.90
41262;DHT22;29629;52.532;13.352;2023-04-03T12:41:23;7.30;99.90
41262;DHT22;29629;52.532;13.352;2023-04-03T12:44:01;7.50;99.90
41262;DHT22;29629;52.532;13.352;2023-04-03T12:46:37;7.90;99.90
41262;DHT22;29629;52.532;13.352;2023-04-03T12:49:20;8.20;99.90
41262;DHT22;29629;52.532;13.352;2023-04-03T12:51:51;9.00;99.90
41262;DHT22;29629;52.532;13.352;2023-04-03T12:54:22;9.20;99.90
41262;DHT22;29629;52.532;13.352;2023-04-03T12:56:51;9.30;99.90
41262;DHT22;29629;52.532;13.352;2023-04-03T12:59:20;8.90;99.90
41262;DHT22;29629;52.532;13.352;2023-04-03T13:01:53;8.80;99.90
41262;DHT22;29629;52.532;13.352;2023-04-03T13:04:21;8.50;99.90
41262;DHT22;29629;52.532;13.352;2023-04-03T13:06:48;8.30;99.90
41262;DHT22;29629;52.532;13.352;2023-04-03T13:09:21;8.10;99.90
41262;DHT22;29629;52.532;13.352;2023-04-03T13:11:51;8.00;99.90
41262;DHT22;29629;52.532;13.352;2023-04-03T13:14:21;7.80;99.90
41262;DHT22;29629;52.532;13.352;2023-04-03T13:16:55;7.70;99.90
41262;DHT22;29629;52.532;13.352;2023-04-03T13:19:23;7.70;99.90
41262;DHT22;29629;52.532;13.352;2023-04-03T13:21:54;7.60;99.90
41262;DHT22;29629;52.532;13.352;2023-04-03T13:24:24;7.50;99.90
41262;DHT22;29629;52.532;13.352;2023-04-03T13:26:52;7.50;99.90
41262;DHT22;29629;52.532;13.352;2023-04-03T13:29:23;7.40;99.90
41262;DHT22;29629;52.532;13.352;2023-04-03T13:31:53;7.50;99.90
41262;DHT22;29629;52.532;13.352;2023-04-03T13:34:22;7.50;99.90
41262;DHT22;29629;52.532;13.352;2023-04-03T13:36:59;7.40;99.90
41262;DHT22;29629;52.532;13.352;2023-04-03T13:39:35;7.50;99.90
41262;DHT22;29629;52.532;13.352;2023-04-03T13:42:16;7.20;99.90
41262;DHT22;29629;52.532;13.352;2023-04-03T13:44:43;7.50;99.90
41262;DHT22;29629;52.532;13.352;2023-04-03T13:47:19;7.50;99.90
41262;DHT22;29629;52.532;13.352;2023-04-03T13:49:59;7.50;99.90
41262;DHT22;29629;52.532;13.352;2023-04-03T13:52:29;7.50;99.90
41262;DHT22;29629;52.532;13.352;2023-04-03T13:54:59;7.50;99.90
41262;DHT22;29629;52.532;13.352;2023-04-03T13:57:28;7.50;99.90
41262;DHT22;29629;52.532;13.352;2023-04-03T13:59:55;7.50;99.90
41262;DHT22;29629;52.532;13.352;2023-04-03T14:02:30;7.40;99.90
41262;DHT22;29629;52.532;13.352;2023-04-03T14:04:59;7.40;99.90
41262;DHT22;29629;52.532;13.352;2023-04-03T14:07:28;7.40;99.90
41262;DHT22;29629;52.532;13.352;2023-04-03T14:09:56;7.20;99.90
41262;DHT22;29629;52.532;13.352;2023-04-03T14:12:27;7.30;99.90
41262;DHT22;29629;52.532;13.352;2023-04-03T14:14:56;7.40;99.90
41262;DHT22;29629;52.532;13.352;2023-04-03T14:17:24;7.50;99.90
41262;DHT22;29629;52.532;13.352;2023-04-03T14:19:53;7.50;99.90
41262;DHT22;29629;52.532;13.352;2023-04-03T14:22:22;7.50;99.90
41262;DHT22;29629;52.532;13.352;2023-04-03T14:24:50;7.50;99.90
41262;DHT22;29629;52.532;13.352;2023-04-03T14:27:20;7.60;99.90
41262;DHT22;29629;52.532;13.352;2023-04-03T14:29:49;7.70;99.90
41262;DHT22;29629;52.532;13.352;2023-04-03T14:32:17;7.70;99.90
41262;DHT22;29629;52.532;13.352;2023-04-03T14:34:45;7.70;99.90
41262;DHT22;29629;52.532;13.352;2023-04-03T14:37:13;7.60;99.90
41262;DHT22;29629;52.532;13.352;2023-04-03T14:39:41;7.80;99.90
41262;DHT22;29629;52.532;13.352;2023-04-03T14:42:12;8.20;99.90
41262;DHT22;29629;52.532;13.352;2023-04-03T14:44:40;8.30;99.90
41262;DHT22;29629;52.532;13.352;2023-04-03T14:47:11;8.20;99.90
41262;DHT22;29629;52.532;13.352;2023-04-03T14:49:38;8.00;99.90
41262;DHT22;29629;52.532;13.352;2023-04-03T14:52:05;8.00;99.90
41262;DHT22;29629;52.532;13.352;2023-04-03T14:54:32;7.90;99.90
41262;DHT22;29629;52.532;13.352;2023-04-03T14:57:00;7.70;99.90
41262;DHT22;29629;52.532;13.352;2023-04-03T14:59:28;7.60;99.90
41262;DHT22;29629;52.532;13.352;2023-04-03T15:01:55;7.50;99.90
41262;DHT22;29629;52.532;13.352;2023-04-03T15:04:23;7.40;99.90
41262;DHT22;29629;52.532;13.352;2023-04-03T15:06:51;7.30;99.90
41262;DHT22;29629;52.532;13.352;2023-04-03T15:09:21;7.20;99.90
41262;DHT22;29629;52.532;13.352;2023-04-03T15:11:50;7.10;99.90
41262;DHT22;29629;52.532;13.352;2023-04-03T15:14:18;7.00;99.90
41262;DHT22;29629;52.532;13.352;2023-04-03T15:16:46;6.90;99.90
41262;DHT22;29629;52.532;13.352;2023-04-03T15:19:13;6.80;99.90
41262;DHT22;29629;52.532;13.352;2023-04-03T15:21:41;6.90;99.90
41262;DHT22;29629;52.532;13.352;2023-04-03T15:24:09;6.90;99.90
41262;DHT22;29629;52.532;13.352;2023-04-03T15:26:36;6.80;99.90
41262;DHT22;29629;52.532;13.352;2023-04-03T15:29:04;6.70;99.90
41262;DHT22;29629;52.532;13.352;2023-04-03T15:31:31;6.60;99.90
41262;DHT22;29629;52.532;13.352;2023-04-03T15:33:58;6.60;99.90
41262;DHT22;29629;52.532;13.352;2023-04-03T15:36:25;6.60;99.90
41262;DHT22;29629;52.532;13.352;2023-04-03T15:38:53;6.70;99.90
41262;DHT22;29629;52.532;13.352;2023-04-03T15:41:20;6.70;99.90
41262;DHT22;29629;52.532;13.352;2023-04-03T15:43:47;6.70;99.90
41262;DHT22;29629;52.532;13.352;2023-04-03T15:46:14;6.80;99.90
41262;DHT22;29629;52.532;13.352;2023-04-03T15:48:41;6.70;99.90
41262;DHT22;29629;52.532;13.352;2023-04-03T15:51:09;6.60;99.90
41262;DHT22;29629;52.532;13.352;2023-04-03T15:53:36;6.60;99.90
41262;DHT22;29629;52.532;13.352;2023-04-03T15:56:04;6.70;99.90
41262;DHT22;29629;52.532;13.352;2023-04-03T15:58:33;6.70;99.90
41262;DHT22;29629;52.532;13.352;2023-04-03T16:01:00;6.70;99.90
41262;DHT22;29629;52.532;13.352;2023-04-03T16:03:28;6.70;99.90